Terminal Aerodrome Forecast
Issued by NWS Lake Charles, LA

Home | Current Version | Previous Version | Text Only | Print | Product List | Glossary On
Versions: 1 2 3 4 5 6 7 8 9 10 11 12 13 14 15 16 17 18 19 20 21 22 23 24 25 26
291
FTUS44 KLCH 240839 AAA
TAFBPT
TAF AMD
KBPT 240839Z 2409/2506 18003KT P6SM SKC
      TEMPO 2409/2411 2SM BR
     FM241500 15010KT P6SM SKC
     FM241800 18016G24KT P6SM BKN050=

USA.gov is the U.S. government's official web portal to all federal, state and local government web resources and services.